sensor_id;sensor_type;location;lat;lon;timestamp;pressure;altitude;pressure_sealevel;temperature;humidity
7182;BME280;3632;42.724;23.298;2023-05-13T00:01:57;95236.97;;;6.90;93.81
7182;BME280;3632;42.724;23.298;2023-05-13T00:04:25;95915.72;;;10.91;93.50
7182;BME280;3632;42.724;23.298;2023-05-13T00:06:52;95694.94;;;10.18;92.43
7182;BME280;3632;42.724;23.298;2023-05-13T00:09:18;95316.72;;;8.00;93.13
7182;BME280;3632;42.724;23.298;2023-05-13T00:11:45;95238.97;;;6.72;95.41
7182;BME280;3632;42.724;23.298;2023-05-13T00:14:14;95251.03;;;7.46;92.17
7182;BME280;3632;42.724;23.298;2023-05-13T00:16:40;95904.81;;;10.89;93.21
7182;BME280;3632;42.724;23.298;2023-05-13T00:19:07;95727.59;;;10.24;95.01
7182;BME280;3632;42.724;23.298;2023-05-13T00:21:34;95810.13;;;10.94;94.95
7182;BME280;3632;42.724;23.298;2023-05-13T00:24:01;95765.59;;;10.39;92.97
7182;BME280;3632;42.724;23.298;2023-05-13T00:26:28;95836.47;;;10.94;92.45
7182;BME280;3632;42.724;23.298;2023-05-13T00:28:54;95464.56;;;8.66;91.70
7182;BME280;3632;42.724;23.298;2023-05-13T00:31:23;95723.19;;;10.38;89.62
7182;BME280;3632;42.724;23.298;2023-05-13T00:33:49;95931.31;;;10.87;91.59
7182;BME280;3632;42.724;23.298;2023-05-13T00:36:16;95816.47;;;10.88;91.09
7182;BME280;3632;42.724;23.298;2023-05-13T00:38:43;95810.56;;;10.88;89.86
7182;BME280;3632;42.724;23.298;2023-05-13T00:41:10;95796.91;;;10.89;88.38
7182;BME280;3632;42.724;23.298;2023-05-13T00:43:37;95706.22;;;10.26;87.28
7182;BME280;3632;42.724;23.298;2023-05-13T00:46:04;95804.06;;;10.84;84.61
7182;BME280;3632;42.724;23.298;2023-05-13T00:48:32;95463.75;;;8.53;83.88
7182;BME280;3632;42.724;23.298;2023-05-13T00:50:59;95476.94;;;8.84;82.89
7182;BME280;3632;42.724;23.298;2023-05-13T00:53:26;95788.75;;;10.84;85.50
7182;BME280;3632;42.724;23.298;2023-05-13T00:55:53;95788.53;;;10.87;85.89
7182;BME280;3632;42.724;23.298;2023-05-13T00:58:20;95726.28;;;10.54;80.83
7182;BME280;3632;42.724;23.298;2023-05-13T01:00:55;95777.25;;;10.78;82.87
7182;BME280;3632;42.724;23.298;2023-05-13T01:03:28;95801.13;;;10.77;80.80
7182;BME280;3632;42.724;23.298;2023-05-13T01:06:03;95822.72;;;10.61;80.25
7182;BME280;3632;42.724;23.298;2023-05-13T01:08:37;95718.72;;;9.55;82.07
7182;BME280;3632;42.724;23.298;2023-05-13T01:11:14;95824.50;;;10.71;80.62
7182;BME280;3632;42.724;23.298;2023-05-13T01:13:43;95719.44;;;9.70;79.96
7182;BME280;3632;42.724;23.298;2023-05-13T01:16:16;95739.97;;;10.41;81.34
7182;BME280;3632;42.724;23.298;2023-05-13T01:18:45;95353.94;;;7.36;82.56
7182;BME280;3632;42.724;23.298;2023-05-13T01:21:15;95810.06;;;10.83;82.98
7182;BME280;3632;42.724;23.298;2023-05-13T01:23:43;95807.09;;;10.89;80.87
7182;BME280;3632;42.724;23.298;2023-05-13T01:26:10;95819.25;;;10.85;81.44
7182;BME280;3632;42.724;23.298;2023-05-13T01:28:37;95824.66;;;10.81;81.46
7182;BME280;3632;42.724;23.298;2023-05-13T01:31:04;95801.19;;;10.16;81.15
7182;BME280;3632;42.724;23.298;2023-05-13T01:33:35;95812.25;;;10.76;85.59
7182;BME280;3632;42.724;23.298;2023-05-13T01:36:02;95294.81;;;7.48;87.28
7182;BME280;3632;42.724;23.298;2023-05-13T01:38:30;95338.47;;;7.66;88.16
7182;BME280;3632;42.724;23.298;2023-05-13T01:40:59;95699.53;;;10.00;89.51
7182;BME280;3632;42.724;23.298;2023-05-13T01:43:25;95824.63;;;10.57;91.71
7182;BME280;3632;42.724;23.298;2023-05-13T01:45:53;95752.06;;;10.26;94.79
7182;BME280;3632;42.724;23.298;2023-05-13T01:48:20;95823.84;;;10.80;94.20
7182;BME280;3632;42.724;23.298;2023-05-13T01:50:48;95729.66;;;10.06;94.25
7182;BME280;3632;42.724;23.298;2023-05-13T01:53:15;95263.28;;;6.75;93.65
7182;BME280;3632;42.724;23.298;2023-05-13T01:55:42;95852.94;;;10.29;94.78
7182;BME280;3632;42.724;23.298;2023-05-13T01:58:10;95828.81;;;10.58;96.47
7182;BME280;3632;42.724;23.298;2023-05-13T02:00:36;95846.47;;;10.48;94.80
7182;BME280;3632;42.724;23.298;2023-05-13T02:03:03;95828.25;;;10.42;95.44
7182;BME280;3632;42.724;23.298;2023-05-13T02:05:30;95940.25;;;10.69;96.80
7182;BME280;3632;42.724;23.298;2023-05-13T02:07:57;95745.53;;;10.35;96.76
7182;BME280;3632;42.724;23.298;2023-05-13T02:10:24;95592.56;;;9.40;93.73
7182;BME280;3632;42.724;23.298;2023-05-13T02:12:51;95734.94;;;10.28;91.61
7182;BME280;3632;42.724;23.298;2023-05-13T02:15:19;95813.59;;;10.69;91.26
7182;BME280;3632;42.724;23.298;2023-05-13T02:17:46;95800.50;;;10.74;90.32
7182;BME280;3632;42.724;23.298;2023-05-13T02:20:13;95122.81;;;6.41;90.86
7182;BME280;3632;42.724;23.298;2023-05-13T02:22:41;95822.00;;;10.82;93.88
7182;BME280;3632;42.724;23.298;2023-05-13T02:25:08;95637.41;;;9.66;92.79
7182;BME280;3632;42.724;23.298;2023-05-13T02:27:35;95754.94;;;10.09;92.00
7182;BME280;3632;42.724;23.298;2023-05-13T02:30:03;95863.97;;;11.02;90.04
7182;BME280;3632;42.724;23.298;2023-05-13T02:32:31;95728.50;;;10.35;90.84
7182;BME280;3632;42.724;23.298;2023-05-13T02:34:58;95446.47;;;8.08;92.60
7182;BME280;3632;42.724;23.298;2023-05-13T02:37:25;95665.66;;;9.87;93.04
7182;BME280;3632;42.724;23.298;2023-05-13T02:39:51;95551.31;;;9.24;93.01
7182;BME280;3632;42.724;23.298;2023-05-13T02:42:18;95862.69;;;11.08;94.32
7182;BME280;3632;42.724;23.298;2023-05-13T02:44:45;95840.69;;;11.07;94.10
7182;BME280;3632;42.724;23.298;2023-05-13T02:47:12;95858.63;;;11.05;94.67
7182;BME280;3632;42.724;23.298;2023-05-13T02:49:41;95665.44;;;9.90;93.12
7182;BME280;3632;42.724;23.298;2023-05-13T02:52:07;95857.00;;;11.04;92.29
7182;BME280;3632;42.724;23.298;2023-05-13T02:54:34;95847.84;;;11.02;91.59
7182;BME280;3632;42.724;23.298;2023-05-13T02:57:02;95830.69;;;10.80;91.33
7182;BME280;3632;42.724;23.298;2023-05-13T02:59:28;95896.69;;;11.08;88.33
7182;BME280;3632;42.724;23.298;2023-05-13T03:01:56;95862.75;;;10.95;89.15
7182;BME280;3632;42.724;23.298;2023-05-13T03:04:23;95865.59;;;11.03;89.22
7182;BME280;3632;42.724;23.298;2023-05-13T03:06:51;95434.31;;;8.38;90.09
7182;BME280;3632;42.724;23.298;2023-05-13T03:09:18;95854.72;;;11.12;91.21
7182;BME280;3632;42.724;23.298;2023-05-13T03:11:45;95415.41;;;8.17;87.20
7182;BME280;3632;42.724;23.298;2023-05-13T03:14:12;95851.84;;;10.93;86.75
7182;BME280;3632;42.724;23.298;2023-05-13T03:16:39;95882.31;;;11.07;88.22
7182;BME280;3632;42.724;23.298;2023-05-13T03:19:06;95306.72;;;6.96;86.17
7182;BME280;3632;42.724;23.298;2023-05-13T03:21:33;95457.81;;;7.90;88.93
7182;BME280;3632;42.724;23.298;2023-05-13T03:24:02;95231.47;;;6.83;91.20
7182;BME280;3632;42.724;23.298;2023-05-13T03:26:29;95876.25;;;10.84;90.75
7182;BME280;3632;42.724;23.298;2023-05-13T03:28:56;95882.56;;;10.91;87.82
7182;BME280;3632;42.724;23.298;2023-05-13T03:31:23;95870.06;;;10.76;87.22
7182;BME280;3632;42.724;23.298;2023-05-13T03:33:50;95815.50;;;10.42;86.69
7182;BME280;3632;42.724;23.298;2023-05-13T03:36:17;95523.41;;;7.96;85.52
7182;BME280;3632;42.724;23.298;2023-05-13T03:38:44;95964.97;;;10.92;85.30
7182;BME280;3632;42.724;23.298;2023-05-13T03:41:12;95709.91;;;9.35;85.75
7182;BME280;3632;42.724;23.298;2023-05-13T03:43:42;95894.06;;;10.97;84.14
7182;BME280;3632;42.724;23.298;2023-05-13T03:46:08;95886.19;;;11.00;83.20
7182;BME280;3632;42.724;23.298;2023-05-13T03:48:36;95271.28;;;7.08;81.57
7182;BME280;3632;42.724;23.298;2023-05-13T03:51:03;95452.47;;;8.07;82.13
7182;BME280;3632;42.724;23.298;2023-05-13T03:53:30;95363.13;;;7.12;80.17
7182;BME280;3632;42.724;23.298;2023-05-13T03:55:56;95899.88;;;10.99;76.84
7182;BME280;3632;42.724;23.298;2023-05-13T03:58:25;95609.69;;;9.25;79.34
7182;BME280;3632;42.724;23.298;2023-05-13T04:00:52;95915.66;;;11.04;77.47
7182;BME280;3632;42.724;23.298;2023-05-13T04:03:18;95984.81;;;10.76;78.36
7182;BME280;3632;42.724;23.298;2023-05-13T04:05:46;95905.31;;;10.20;75.93
7182;BME280;3632;42.724;23.298;2023-05-13T04:08:13;95629.13;;;8.76;79.48
7182;BME280;3632;42.724;23.298;2023-05-13T04:10:40;95867.97;;;9.69;79.43
7182;BME280;3632;42.724;23.298;2023-05-13T04:13:07;95962.44;;;10.92;76.23
7182;BME280;3632;42.724;23.298;2023-05-13T04:15:36;95810.97;;;10.09;77.14
7182;BME280;3632;42.724;23.298;2023-05-13T04:18:02;95713.81;;;9.77;77.86
7182;BME280;3632;42.724;23.298;2023-05-13T04:20:29;95918.13;;;11.06;76.38
7182;BME280;3632;42.724;23.298;2023-05-13T04:22:56;95923.13;;;11.07;77.08
7182;BME280;3632;42.724;23.298;2023-05-13T04:25:23;95928.59;;;11.14;77.17
7182;BME280;3632;42.724;23.298;2023-05-13T04:27:50;95886.41;;;10.73;76.05
7182;BME280;3632;42.724;23.298;2023-05-13T04:30:17;95939.25;;;11.31;74.59
7182;BME280;3632;42.724;23.298;2023-05-13T04:32:45;95838.13;;;10.83;74.69
7182;BME280;3632;42.724;23.298;2023-05-13T04:35:12;96023.69;;;11.28;75.35
7182;BME280;3632;42.724;23.298;2023-05-13T04:37:39;95935.56;;;11.35;74.10
7182;BME280;3632;42.724;23.298;2023-05-13T04:40:07;95680.75;;;9.64;71.97
7182;BME280;3632;42.724;23.298;2023-05-13T04:42:34;95427.50;;;8.13;70.99
7182;BME280;3632;42.724;23.298;2023-05-13T04:45:01;95352.66;;;7.68;73.38
7182;BME280;3632;42.724;23.298;2023-05-13T04:47:28;95746.69;;;10.05;72.92
7182;BME280;3632;42.724;23.298;2023-05-13T04:49:56;95826.41;;;10.44;72.11
7182;BME280;3632;42.724;23.298;2023-05-13T04:52:23;95258.69;;;7.07;74.19
7182;BME280;3632;42.724;23.298;2023-05-13T04:54:50;95873.31;;;10.78;74.16
7182;BME280;3632;42.724;23.298;2023-05-13T04:57:17;95941.59;;;11.34;73.01
7182;BME280;3632;42.724;23.298;2023-05-13T04:59:44;95930.47;;;11.35;74.95
7182;BME280;3632;42.724;23.298;2023-05-13T05:02:11;95931.03;;;11.63;71.27
7182;BME280;3632;42.724;23.298;2023-05-13T05:04:38;95853.88;;;11.24;72.16
7182;BME280;3632;42.724;23.298;2023-05-13T05:07:06;95641.50;;;9.92;72.28
7182;BME280;3632;42.724;23.298;2023-05-13T05:09:36;95687.94;;;10.32;71.84
7182;BME280;3632;42.724;23.298;2023-05-13T05:12:04;95929.06;;;11.79;72.03
7182;BME280;3632;42.724;23.298;2023-05-13T05:14:31;95869.31;;;11.34;70.10
7182;BME280;3632;42.724;23.298;2023-05-13T05:16:58;95578.28;;;9.86;69.47
7182;BME280;3632;42.724;23.298;2023-05-13T05:19:25;95775.91;;;10.25;69.67
7182;BME280;3632;42.724;23.298;2023-05-13T05:21:52;95770.16;;;10.47;68.19
7182;BME280;3632;42.724;23.298;2023-05-13T05:24:20;95658.75;;;10.13;66.15
7182;BME280;3632;42.724;23.298;2023-05-13T05:26:47;95979.69;;;11.61;64.85
7182;BME280;3632;42.724;23.298;2023-05-13T05:29:14;96035.28;;;11.45;66.61
7182;BME280;3632;42.724;23.298;2023-05-13T05:31:41;95856.34;;;11.13;67.12
7182;BME280;3632;42.724;23.298;2023-05-13T05:34:07;95856.69;;;11.32;64.95
7182;BME280;3632;42.724;23.298;2023-05-13T05:36:34;95895.53;;;10.52;64.74
7182;BME280;3632;42.724;23.298;2023-05-13T05:39:01;96042.13;;;11.68;65.54
7182;BME280;3632;42.724;23.298;2023-05-13T05:41:30;95940.22;;;11.89;68.12
7182;BME280;3632;42.724;23.298;2023-05-13T05:43:58;95926.50;;;11.79;66.38
7182;BME280;3632;42.724;23.298;2023-05-13T05:46:24;95901.09;;;11.88;69.29
7182;BME280;3632;42.724;23.298;2023-05-13T05:48:51;96031.28;;;12.25;70.53
7182;BME280;3632;42.724;23.298;2023-05-13T05:51:18;95623.28;;;10.22;66.53
7182;BME280;3632;42.724;23.298;2023-05-13T05:53:45;95968.88;;;12.27;66.25
7182;BME280;3632;42.724;23.298;2023-05-13T05:56:13;95734.59;;;10.57;64.85
7182;BME280;3632;42.724;23.298;2023-05-13T05:58:41;95522.22;;;9.51;66.77
7182;BME280;3632;42.724;23.298;2023-05-13T06:01:08;96083.31;;;12.59;65.84
7182;BME280;3632;42.724;23.298;2023-05-13T06:03:35;95992.19;;;12.58;65.67
7182;BME280;3632;42.724;23.298;2023-05-13T06:06:03;95262.84;;;8.69;64.73
7182;BME280;3632;42.724;23.298;2023-05-13T06:08:36;95587.84;;;10.54;62.09
7182;BME280;3632;42.724;23.298;2023-05-13T06:11:03;95575.66;;;10.46;62.33
7182;BME280;3632;42.724;23.298;2023-05-13T06:13:30;95269.25;;;8.62;62.46
7182;BME280;3632;42.724;23.298;2023-05-13T06:15:59;95943.34;;;12.83;62.91
7182;BME280;3632;42.724;23.298;2023-05-13T06:18:26;95946.59;;;12.74;62.06
7182;BME280;3632;42.724;23.298;2023-05-13T06:20:53;95671.38;;;11.08;62.20
7182;BME280;3632;42.724;23.298;2023-05-13T06:23:20;95710.78;;;11.04;61.95
7182;BME280;3632;42.724;23.298;2023-05-13T06:25:47;95542.34;;;10.72;62.04
7182;BME280;3632;42.724;23.298;2023-05-13T06:28:14;95904.59;;;12.99;63.67
7182;BME280;3632;42.724;23.298;2023-05-13T06:30:42;95901.13;;;13.00;60.56
7182;BME280;3632;42.724;23.298;2023-05-13T06:33:11;95953.53;;;13.39;60.10
7182;BME280;3632;42.724;23.298;2023-05-13T06:35:38;95783.47;;;12.23;60.38
7182;BME280;3632;42.724;23.298;2023-05-13T06:38:05;95959.28;;;13.31;56.47
7182;BME280;3632;42.724;23.298;2023-05-13T06:40:32;95457.16;;;10.41;56.94
7182;BME280;3632;42.724;23.298;2023-05-13T06:42:59;95831.06;;;12.69;57.32
7182;BME280;3632;42.724;23.298;2023-05-13T06:45:26;95786.41;;;12.08;58.15
7182;BME280;3632;42.724;23.298;2023-05-13T06:47:53;95762.22;;;11.89;56.61
7182;BME280;3632;42.724;23.298;2023-05-13T06:50:23;95703.84;;;12.39;55.56
7182;BME280;3632;42.724;23.298;2023-05-13T06:52:50;95893.81;;;13.49;54.49
7182;BME280;3632;42.724;23.298;2023-05-13T06:55:17;95711.22;;;12.32;53.25
7182;BME280;3632;42.724;23.298;2023-05-13T06:57:44;95948.28;;;13.83;55.78
7182;BME280;3632;42.724;23.298;2023-05-13T07:00:12;95880.94;;;13.28;57.24
7182;BME280;3632;42.724;23.298;2023-05-13T07:02:39;95429.00;;;10.53;56.78
7182;BME280;3632;42.724;23.298;2023-05-13T07:05:07;95988.41;;;14.14;55.29
7182;BME280;3632;42.724;23.298;2023-05-13T07:07:35;95949.22;;;14.24;56.00
7182;BME280;3632;42.724;23.298;2023-05-13T07:10:03;95953.94;;;14.39;55.14
7182;BME280;3632;42.724;23.298;2023-05-13T07:12:30;95742.31;;;13.12;55.93
7182;BME280;3632;42.724;23.298;2023-05-13T07:14:57;95960.19;;;14.26;54.85
7182;BME280;3632;42.724;23.298;2023-05-13T07:17:24;95572.31;;;11.90;53.42
7182;BME280;3632;42.724;23.298;2023-05-13T07:19:51;95587.53;;;11.70;55.12
7182;BME280;3632;42.724;23.298;2023-05-13T07:22:18;95737.97;;;12.92;53.50
7182;BME280;3632;42.724;23.298;2023-05-13T07:24:46;95512.31;;;11.63;51.56
7182;BME280;3632;42.724;23.298;2023-05-13T07:27:13;95983.09;;;14.99;53.08
7182;BME280;3632;42.724;23.298;2023-05-13T07:29:39;95897.81;;;14.46;54.72
7182;BME280;3632;42.724;23.298;2023-05-13T07:32:07;96070.13;;;15.23;52.39
7182;BME280;3632;42.724;23.298;2023-05-13T07:34:34;95458.25;;;11.26;52.58
7182;BME280;3632;42.724;23.298;2023-05-13T07:37:01;95968.34;;;14.91;54.67
7182;BME280;3632;42.724;23.298;2023-05-13T07:39:28;95601.84;;;12.68;55.94
7182;BME280;3632;42.724;23.298;2023-05-13T07:41:57;95960.50;;;15.33;55.47
7182;BME280;3632;42.724;23.298;2023-05-13T07:44:24;95973.25;;;15.44;57.30
7182;BME280;3632;42.724;23.298;2023-05-13T07:46:51;95956.94;;;15.83;56.58
7182;BME280;3632;42.724;23.298;2023-05-13T07:49:18;95963.03;;;16.02;53.63
7182;BME280;3632;42.724;23.298;2023-05-13T07:51:46;95967.47;;;16.09;54.00
7182;BME280;3632;42.724;23.298;2023-05-13T07:54:12;95964.94;;;15.99;53.36
7182;BME280;3632;42.724;23.298;2023-05-13T07:56:39;95951.00;;;15.73;55.65
7182;BME280;3632;42.724;23.298;2023-05-13T07:59:09;95913.09;;;15.85;55.73
7182;BME280;3632;42.724;23.298;2023-05-13T08:01:36;95970.47;;;15.76;54.00
7182;BME280;3632;42.724;23.298;2023-05-13T08:04:04;95951.22;;;16.28;53.64
7182;BME280;3632;42.724;23.298;2023-05-13T08:06:31;95955.25;;;16.40;52.89
7182;BME280;3632;42.724;23.298;2023-05-13T08:08:57;95880.19;;;15.12;52.11
7182;BME280;3632;42.724;23.298;2023-05-13T08:11:24;95757.16;;;13.81;54.16
7182;BME280;3632;42.724;23.298;2023-05-13T08:13:51;95386.03;;;11.78;56.17
7182;BME280;3632;42.724;23.298;2023-05-13T08:16:20;95955.94;;;15.46;56.03
7182;BME280;3632;42.724;23.298;2023-05-13T08:18:46;95966.81;;;15.09;57.35
7182;BME280;3632;42.724;23.298;2023-05-13T08:21:13;95914.19;;;15.63;55.88
7182;BME280;3632;42.724;23.298;2023-05-13T08:23:40;95547.31;;;12.88;59.31
7182;BME280;3632;42.724;23.298;2023-05-13T08:26:07;95947.22;;;15.77;59.46
7182;BME280;3632;42.724;23.298;2023-05-13T08:28:34;96001.72;;;15.71;59.10
7182;BME280;3632;42.724;23.298;2023-05-13T08:31:01;95952.75;;;15.82;56.82
7182;BME280;3632;42.724;23.298;2023-05-13T08:33:29;95868.16;;;15.41;59.26
7182;BME280;3632;42.724;23.298;2023-05-13T08:35:58;95486.66;;;13.09;58.90
7182;BME280;3632;42.724;23.298;2023-05-13T08:38:25;95894.09;;;16.24;56.65
7182;BME280;3632;42.724;23.298;2023-05-13T08:40:52;95518.38;;;13.87;57.24
7182;BME280;3632;42.724;23.298;2023-05-13T08:43:19;95939.72;;;16.78;52.96
7182;BME280;3632;42.724;23.298;2023-05-13T08:45:46;95929.50;;;16.96;53.66
7182;BME280;3632;42.724;23.298;2023-05-13T08:48:15;95806.25;;;16.19;55.74
7182;BME280;3632;42.724;23.298;2023-05-13T08:50:45;95872.22;;;15.91;56.60
7182;BME280;3632;42.724;23.298;2023-05-13T08:53:15;95687.44;;;15.42;57.03
7182;BME280;3632;42.724;23.298;2023-05-13T08:55:42;95668.09;;;15.38;56.51
7182;BME280;3632;42.724;23.298;2023-05-13T08:58:10;95683.59;;;14.51;56.20
7182;BME280;3632;42.724;23.298;2023-05-13T09:00:38;95872.53;;;16.35;57.34
7182;BME280;3632;42.724;23.298;2023-05-13T09:03:05;95880.44;;;16.70;56.19
7182;BME280;3632;42.724;23.298;2023-05-13T09:05:34;95903.13;;;16.84;57.13
7182;BME280;3632;42.724;23.298;2023-05-13T09:08:07;95587.25;;;15.05;58.33
7182;BME280;3632;42.724;23.298;2023-05-13T09:10:34;95722.97;;;15.66;59.25
7182;BME280;3632;42.724;23.298;2023-05-13T09:13:01;95879.84;;;16.76;61.60
7182;BME280;3632;42.724;23.298;2023-05-13T09:15:29;95902.72;;;17.52;57.64
7182;BME280;3632;42.724;23.298;2023-05-13T09:17:59;95904.84;;;17.56;55.51
7182;BME280;3632;42.724;23.298;2023-05-13T09:20:26;95867.78;;;17.57;58.22
7182;BME280;3632;42.724;23.298;2023-05-13T09:22:55;95951.19;;;17.66;59.10
7182;BME280;3632;42.724;23.298;2023-05-13T09:25:24;95363.44;;;14.74;55.59
7182;BME280;3632;42.724;23.298;2023-05-13T09:27:52;95855.63;;;18.03;52.96
7182;BME280;3632;42.724;23.298;2023-05-13T09:30:22;95894.59;;;18.25;53.75
7182;BME280;3632;42.724;23.298;2023-05-13T09:33:04;95669.63;;;16.85;52.20
7182;BME280;3632;42.724;23.298;2023-05-13T09:35:32;95846.81;;;18.13;52.45
7182;BME280;3632;42.724;23.298;2023-05-13T09:37:59;95890.50;;;18.58;52.48
7182;BME280;3632;42.724;23.298;2023-05-13T09:40:27;95928.63;;;18.73;54.21
7182;BME280;3632;42.724;23.298;2023-05-13T09:42:56;95968.28;;;18.97;52.79
7182;BME280;3632;42.724;23.298;2023-05-13T09:45:25;95853.91;;;19.21;52.88
7182;BME280;3632;42.724;23.298;2023-05-13T09:47:54;95771.97;;;18.47;53.87
7182;BME280;3632;42.724;23.298;2023-05-13T09:50:21;95874.03;;;19.59;54.33
7182;BME280;3632;42.724;23.298;2023-05-13T09:52:49;95851.19;;;19.39;52.05
7182;BME280;3632;42.724;23.298;2023-05-13T09:55:16;95902.81;;;19.73;51.66
7182;BME280;3632;42.724;23.298;2023-05-13T09:57:45;95572.78;;;17.77;52.82
7182;BME280;3632;42.724;23.298;2023-05-13T10:00:12;95506.50;;;17.62;52.02
7182;BME280;3632;42.724;23.298;2023-05-13T10:02:39;95591.31;;;18.55;54.57
7182;BME280;3632;42.724;23.298;2023-05-13T10:05:07;95860.03;;;20.49;52.97
7182;BME280;3632;42.724;23.298;2023-05-13T10:07:36;95642.97;;;18.96;51.28
7182;BME280;3632;42.724;23.298;2023-05-13T10:10:06;95865.03;;;20.51;50.49
7182;BME280;3632;42.724;23.298;2023-05-13T10:12:36;95652.66;;;18.78;50.96
7182;BME280;3632;42.724;23.298;2023-05-13T10:15:06;95724.66;;;19.37;51.89
7182;BME280;3632;42.724;23.298;2023-05-13T10:17:34;95886.13;;;19.99;52.49
7182;BME280;3632;42.724;23.298;2023-05-13T10:20:02;95543.38;;;18.29;51.54
7182;BME280;3632;42.724;23.298;2023-05-13T10:22:32;95535.63;;;18.77;51.37
7182;BME280;3632;42.724;23.298;2023-05-13T10:25:00;95541.22;;;19.13;52.01
7182;BME280;3632;42.724;23.298;2023-05-13T10:27:28;95862.75;;;21.57;49.28
7182;BME280;3632;42.724;23.298;2023-05-13T10:29:56;95597.75;;;20.10;51.12
7182;BME280;3632;42.724;23.298;2023-05-13T10:32:29;95856.88;;;21.63;48.41
7182;BME280;3632;42.724;23.298;2023-05-13T10:35:01;95805.00;;;21.09;47.69
7182;BME280;3632;42.724;23.298;2023-05-13T10:37:53;95613.44;;;20.39;48.81
7182;BME280;3632;42.724;23.298;2023-05-13T10:40:31;95861.47;;;21.98;46.90
7182;BME280;3632;42.724;23.298;2023-05-13T10:43:13;95760.41;;;21.22;48.08
7182;BME280;3632;42.724;23.298;2023-05-13T10:45:47;95388.59;;;18.76;50.33
7182;BME280;3632;42.724;23.298;2023-05-13T10:48:22;95356.56;;;19.01;49.63
7182;BME280;3632;42.724;23.298;2023-05-13T10:50:53;95814.59;;;22.14;47.42
7182;BME280;3632;42.724;23.298;2023-05-13T10:53:23;95812.81;;;22.29;46.80
7182;BME280;3632;42.724;23.298;2023-05-13T10:55:55;95720.28;;;21.55;45.73
7182;BME280;3632;42.724;23.298;2023-05-13T10:58:28;95491.59;;;20.41;46.12
7182;BME280;3632;42.724;23.298;2023-05-13T11:01:19;95761.56;;;22.53;47.50
7182;BME280;3632;42.724;23.298;2023-05-13T11:03:53;95630.53;;;21.31;46.22
7182;BME280;3632;42.724;23.298;2023-05-13T11:06:28;95583.59;;;20.89;46.50
7182;BME280;3632;42.724;23.298;2023-05-13T11:08:58;95881.88;;;22.68;46.88
7182;BME280;3632;42.724;23.298;2023-05-13T11:11:29;95944.53;;;22.88;46.11
7182;BME280;3632;42.724;23.298;2023-05-13T11:14:12;95267.06;;;19.08;45.18
7182;BME280;3632;42.724;23.298;2023-05-13T11:16:45;95873.72;;;23.00;44.53
7182;BME280;3632;42.724;23.298;2023-05-13T11:19:24;95633.75;;;22.07;43.12
7182;BME280;3632;42.724;23.298;2023-05-13T11:21:53;95600.22;;;22.26;44.39
7182;BME280;3632;42.724;23.298;2023-05-13T11:24:33;95355.63;;;20.60;45.15
7182;BME280;3632;42.724;23.298;2023-05-13T11:27:16;95592.41;;;22.05;43.12
7182;BME280;3632;42.724;23.298;2023-05-13T11:29:55;95243.28;;;19.87;41.95
7182;BME280;3632;42.724;23.298;2023-05-13T11:32:51;95319.44;;;20.22;43.93
7182;BME280;3632;42.724;23.298;2023-05-13T11:35:25;95717.72;;;21.99;44.00
7182;BME280;3632;42.724;23.298;2023-05-13T11:37:58;95385.94;;;19.99;42.92
7182;BME280;3632;42.724;23.298;2023-05-13T11:40:27;95784.59;;;23.06;42.87
7182;BME280;3632;42.724;23.298;2023-05-13T11:42:57;95245.00;;;20.10;43.44
7182;BME280;3632;42.724;23.298;2023-05-13T11:45:25;95298.63;;;20.74;42.61
7182;BME280;3632;42.724;23.298;2023-05-13T11:47:53;95509.09;;;22.43;41.88
7182;BME280;3632;42.724;23.298;2023-05-13T11:50:26;95784.50;;;24.88;42.81
7182;BME280;3632;42.724;23.298;2023-05-13T11:52:55;95862.06;;;24.79;41.51
7182;BME280;3632;42.724;23.298;2023-05-13T11:55:26;95695.56;;;23.81;40.38
7182;BME280;3632;42.724;23.298;2023-05-13T11:57:53;95401.88;;;22.00;45.40
7182;BME280;3632;42.724;23.298;2023-05-13T12:00:24;95815.56;;;25.37;43.17
7182;BME280;3632;42.724;23.298;2023-05-13T12:02:52;95318.34;;;22.52;42.92
7182;BME280;3632;42.724;23.298;2023-05-13T12:05:19;95298.38;;;22.59;42.17
7182;BME280;3632;42.724;23.298;2023-05-13T12:07:48;95781.25;;;25.73;40.81
7182;BME280;3632;42.724;23.298;2023-05-13T12:10:15;95491.75;;;23.40;41.55
7182;BME280;3632;42.724;23.298;2023-05-13T12:12:43;95329.63;;;21.61;41.12
7182;BME280;3632;42.724;23.298;2023-05-13T12:15:11;95779.63;;;24.72;40.40
7182;BME280;3632;42.724;23.298;2023-05-13T12:17:39;95787.38;;;24.18;39.93
7182;BME280;3632;42.724;23.298;2023-05-13T12:20:08;95785.28;;;24.41;41.19
7182;BME280;3632;42.724;23.298;2023-05-13T12:22:36;95376.84;;;20.99;41.60
7182;BME280;3632;42.724;23.298;2023-05-13T12:25:40;95786.97;;;23.93;43.04
7182;BME280;3632;42.724;23.298;2023-05-13T12:28:12;95772.09;;;24.49;42.33
7182;BME280;3632;42.724;23.298;2023-05-13T12:30:42;95691.56;;;23.79;41.65
7182;BME280;3632;42.724;23.298;2023-05-13T12:33:14;95493.94;;;21.68;41.95
7182;BME280;3632;42.724;23.298;2023-05-13T12:35:42;95375.44;;;20.52;43.18
7182;BME280;3632;42.724;23.298;2023-05-13T12:38:14;95757.41;;;23.30;40.13
7182;BME280;3632;42.724;23.298;2023-05-13T12:40:44;95189.41;;;19.61;41.60
7182;BME280;3632;42.724;23.298;2023-05-13T12:43:14;95256.06;;;19.89;41.87
7182;BME280;3632;42.724;23.298;2023-05-13T12:45:45;95746.22;;;22.72;41.63
7182;BME280;3632;42.724;23.298;2023-05-13T12:48:12;95805.91;;;22.81;40.89
7182;BME280;3632;42.724;23.298;2023-05-13T12:50:41;95240.91;;;18.88;43.98
7182;BME280;3632;42.724;23.298;2023-05-13T12:53:08;95472.06;;;20.68;44.33
7182;BME280;3632;42.724;23.298;2023-05-13T12:55:38;95754.06;;;22.43;46.57
7182;BME280;3632;42.724;23.298;2023-05-13T12:58:07;95748.16;;;22.20;45.52
7182;BME280;3632;42.724;23.298;2023-05-13T13:00:36;95569.28;;;21.30;46.70
7182;BME280;3632;42.724;23.298;2023-05-13T13:03:04;95216.88;;;19.25;45.76
7182;BME280;3632;42.724;23.298;2023-05-13T13:05:32;95363.63;;;19.60;44.54
7182;BME280;3632;42.724;23.298;2023-05-13T13:07:59;95578.25;;;21.42;44.27
7182;BME280;3632;42.724;23.298;2023-05-13T13:10:27;95759.53;;;22.48;44.58
7182;BME280;3632;42.724;23.298;2023-05-13T13:12:56;95815.88;;;22.18;43.05
7182;BME280;3632;42.724;23.298;2023-05-13T13:15:24;95656.59;;;21.67;44.64
7182;BME280;3632;42.724;23.298;2023-05-13T13:17:52;95745.75;;;22.04;44.60
7182;BME280;3632;42.724;23.298;2023-05-13T13:20:19;95235.91;;;18.48;44.80